Terminal Aerodrome Forecast
Issued by NWS

Home | Current Version | Previous Version | Text Only | Print | Product List | Glossary On
Versions: 1 2 3 4 5 6 7 8 9 10 11 12 13 14 15
000
FTUS45 KGJT 202341
TAFMTJ
TAF
KMTJ 202341Z 2100/2124 20013KT P6SM -SHRA VCTS SCT070CB OVC110
     FM210300 15007KT P6SM VCSH OVC070
     FM210600 12006KT P6SM SCT040 BKN070
     FM210900 12006KT P6SM SCT060
     FM211600 VRB03KT P6SM VCSH BKN100
     FM212100 15011G19KT P6SM VCTS SCT070CB BKN100=

USA.gov is the U.S. government's official web portal to all federal, state and local government web resources and services.